createdAt,value
2023-05-25T00:00:10.542Z,95669.84
2023-05-25T00:02:37.840Z,95622.19
2023-05-25T00:05:04.877Z,95614.31
2023-05-25T00:07:31.277Z,95624.66
2023-05-25T00:09:57.681Z,95594.72
2023-05-25T00:12:24.324Z,95568.69
2023-05-25T00:14:50.782Z,95471.97
2023-05-25T00:17:18.714Z,95397.84
2023-05-25T00:19:46.107Z,95350.72
2023-05-25T00:22:12.520Z,95385.09
2023-05-25T00:24:39.617Z,95419.00
2023-05-25T00:27:07.211Z,95376.28
2023-05-25T00:29:35.986Z,95370.94
2023-05-25T00:32:03.026Z,95312.69
2023-05-25T00:34:29.751Z,95317.63
2023-05-25T00:36:56.192Z,95289.44
2023-05-25T00:39:22.668Z,95277.03
2023-05-25T00:41:49.295Z,95283.25
2023-05-25T00:44:16.587Z,95300.28
2023-05-25T00:46:51.051Z,95297.00
2023-05-25T00:49:23.216Z,95286.19
2023-05-25T00:51:49.797Z,95305.53
2023-05-25T00:54:16.583Z,95315.53
2023-05-25T00:56:56.692Z,95320.63
2023-05-25T00:59:41.296Z,95345.81
2023-05-25T01:02:09.759Z,95336.03
2023-05-25T01:04:41.705Z,95347.34
2023-05-25T01:07:08.874Z,95310.53
2023-05-25T01:09:35.944Z,95248.44
2023-05-25T01:12:02.617Z,95226.88
2023-05-25T01:14:29.293Z,95288.53
2023-05-25T01:16:56.454Z,95237.84
2023-05-25T01:19:22.943Z,95154.97
2023-05-25T01:21:55.672Z,95085.44
2023-05-25T01:24:33.542Z,95077.78
2023-05-25T01:27:10.802Z,95066.50
2023-05-25T01:29:37.340Z,95034.94
2023-05-25T01:32:03.960Z,95109.84
2023-05-25T01:34:31.270Z,95142.53
2023-05-25T01:36:57.821Z,95127.38
2023-05-25T01:39:24.299Z,95078.50
2023-05-25T01:41:50.798Z,95105.78
2023-05-25T01:44:17.255Z,95085.41
2023-05-25T01:46:43.745Z,95085.41
2023-05-25T01:49:36.584Z,95138.41
2023-05-25T01:52:28.835Z,95166.84
2023-05-25T01:54:59.641Z,95158.34
2023-05-25T01:57:26.044Z,95124.06
2023-05-25T01:59:52.985Z,95062.16
2023-05-25T02:02:19.844Z,95079.97
2023-05-25T02:04:46.805Z,95165.28
2023-05-25T02:07:13.320Z,95194.19
2023-05-25T02:09:40.062Z,95191.13
2023-05-25T02:12:06.629Z,95153.06
2023-05-25T02:14:33.070Z,95088.91
2023-05-25T02:17:02.138Z,95065.75
2023-05-25T02:19:29.261Z,95024.59
2023-05-25T02:21:55.724Z,95011.53
2023-05-25T02:24:24.712Z,95002.28
2023-05-25T02:26:51.675Z,94978.00
2023-05-25T02:29:18.260Z,94930.66
2023-05-25T02:31:44.842Z,94891.13
2023-05-25T02:34:11.762Z,94898.59
2023-05-25T02:36:39.460Z,94886.91
2023-05-25T02:39:06.095Z,94890.47
2023-05-25T02:41:32.494Z,94921.03
2023-05-25T02:43:59.384Z,95001.19
2023-05-25T02:46:26.221Z,95022.44
2023-05-25T02:48:52.686Z,95101.44
2023-05-25T02:51:19.108Z,95125.16
2023-05-25T02:53:45.608Z,95069.47
2023-05-25T02:56:12.231Z,95026.09
2023-05-25T02:58:38.754Z,94994.09
2023-05-25T03:01:05.996Z,95018.56
2023-05-25T03:03:32.465Z,95001.63
2023-05-25T03:05:58.974Z,94979.13
2023-05-25T03:08:25.623Z,94950.09
2023-05-25T03:10:52.069Z,94899.97
2023-05-25T03:13:18.463Z,94914.19
2023-05-25T03:15:45.251Z,94918.78
2023-05-25T03:18:11.954Z,94918.25
2023-05-25T03:20:38.578Z,94937.66
2023-05-25T03:23:05.080Z,94924.00
2023-05-25T03:25:31.503Z,94933.47
2023-05-25T03:27:57.969Z,94891.72
2023-05-25T03:30:24.396Z,94857.63
2023-05-25T03:32:50.934Z,94835.91
2023-05-25T03:35:17.473Z,94858.19
2023-05-25T03:37:43.931Z,94812.25
2023-05-25T03:40:11.784Z,94652.03
2023-05-25T03:42:38.390Z,94596.84
2023-05-25T03:45:06.360Z,94557.69
2023-05-25T03:47:33.104Z,94548.91
2023-05-25T03:49:59.609Z,94511.47
2023-05-25T03:52:26.054Z,94369.22
2023-05-25T03:54:52.485Z,94197.34
2023-05-25T03:57:18.914Z,94016.13
2023-05-25T03:59:45.473Z,93673.13
2023-05-25T04:02:11.906Z,93439.75
2023-05-25T04:04:41.679Z,93354.09
2023-05-25T04:07:08.533Z,93272.59
2023-05-25T04:09:34.959Z,93061.81
2023-05-25T04:12:02.291Z,92910.00
2023-05-25T04:14:29.144Z,92410.00
2023-05-25T04:16:55.764Z,92349.09
2023-05-25T04:19:22.232Z,92435.06
2023-05-25T04:21:48.744Z,92390.53
2023-05-25T04:24:15.132Z,92234.81
2023-05-25T04:26:41.595Z,92111.19
2023-05-25T04:29:09.870Z,92087.31
2023-05-25T04:31:36.398Z,92061.88
2023-05-25T04:34:05.718Z,91936.56
2023-05-25T04:36:35.304Z,91889.75
2023-05-25T04:39:04.444Z,91893.53
2023-05-25T04:41:30.965Z,92042.09
2023-05-25T04:44:09.161Z,92160.03
2023-05-25T04:46:39.392Z,92269.41
2023-05-25T04:49:06.205Z,92338.03
2023-05-25T04:51:32.872Z,92361.47
2023-05-25T04:53:59.792Z,92354.38
2023-05-25T04:56:26.662Z,92483.41
2023-05-25T04:58:53.344Z,92529.78
2023-05-25T05:01:24.086Z,92610.25
2023-05-25T05:03:50.694Z,92706.59
2023-05-25T05:06:17.837Z,92749.13
2023-05-25T05:08:44.255Z,92778.31
2023-05-25T05:11:10.738Z,92830.63
2023-05-25T05:13:37.133Z,92825.53
2023-05-25T05:16:03.691Z,92932.44
2023-05-25T05:18:30.740Z,93008.28
2023-05-25T05:20:57.289Z,93096.59
2023-05-25T05:23:23.692Z,93171.91
2023-05-25T05:25:50.298Z,93233.94
2023-05-25T05:28:16.750Z,93312.78
2023-05-25T05:30:46.441Z,93410.78
2023-05-25T05:33:14.200Z,93548.41
2023-05-25T05:35:40.715Z,93702.97
2023-05-25T05:38:07.319Z,93789.00
2023-05-25T05:40:34.036Z,93816.53
2023-05-25T05:43:00.647Z,93810.88
2023-05-25T05:45:27.066Z,93825.75
2023-05-25T05:47:53.545Z,93869.34
2023-05-25T05:50:20.111Z,93917.78
2023-05-25T05:52:46.983Z,94040.72
2023-05-25T05:55:13.510Z,94053.22
2023-05-25T05:57:39.934Z,94115.94
2023-05-25T06:00:07.410Z,94137.66
2023-05-25T06:02:34.068Z,94174.03
2023-05-25T06:05:01.588Z,94172.25
2023-05-25T06:07:28.998Z,94145.16
2023-05-25T06:09:56.080Z,94206.94
2023-05-25T06:12:22.526Z,94334.03
2023-05-25T06:14:50.613Z,94433.84
2023-05-25T06:17:17.221Z,94594.78
2023-05-25T06:19:43.663Z,94757.44
2023-05-25T06:22:10.078Z,94887.78
2023-05-25T06:24:36.721Z,94897.34
2023-05-25T06:27:03.668Z,94869.16
2023-05-25T06:29:30.200Z,94940.72
2023-05-25T06:31:56.859Z,94917.44
2023-05-25T06:34:23.680Z,95040.06
2023-05-25T06:36:50.100Z,95065.34
2023-05-25T06:39:16.751Z,95198.44
2023-05-25T06:41:43.210Z,95241.56
2023-05-25T06:44:09.702Z,95314.13
2023-05-25T06:46:36.575Z,95392.97
2023-05-25T06:49:03.519Z,95389.16
2023-05-25T06:51:29.929Z,95434.50
2023-05-25T06:53:57.111Z,95431.56
2023-05-25T06:56:23.670Z,95434.47
2023-05-25T06:58:50.661Z,95401.91
2023-05-25T07:01:17.446Z,95532.75
2023-05-25T07:03:43.909Z,95601.28
2023-05-25T07:06:12.156Z,95631.06
2023-05-25T07:08:38.855Z,95668.31
2023-05-25T07:11:05.433Z,95636.94
2023-05-25T07:13:31.863Z,95708.78
2023-05-25T07:15:58.330Z,95861.38
2023-05-25T07:18:24.892Z,95895.34
2023-05-25T07:20:51.503Z,95861.50
2023-05-25T07:23:17.998Z,95879.84
2023-05-25T07:25:44.747Z,95949.25
2023-05-25T07:28:11.425Z,95912.16
2023-05-25T07:30:37.887Z,95944.41
2023-05-25T07:33:04.407Z,96002.50
2023-05-25T07:35:30.935Z,96003.22
2023-05-25T07:38:01.461Z,96082.50
2023-05-25T07:40:28.246Z,96205.78
2023-05-25T07:42:54.746Z,96290.41
2023-05-25T07:45:21.480Z,96317.66
2023-05-25T07:47:47.988Z,96392.66
2023-05-25T07:50:15.051Z,96426.44
2023-05-25T07:52:41.801Z,96371.94
2023-05-25T07:55:08.864Z,96410.00
2023-05-25T07:57:35.522Z,96342.66
2023-05-25T08:00:02.158Z,96320.88
2023-05-25T08:02:28.682Z,96423.84
2023-05-25T08:04:55.248Z,96550.78
2023-05-25T08:07:22.057Z,96614.47
2023-05-25T08:09:48.462Z,96685.38
2023-05-25T08:12:34.332Z,96816.53
2023-05-25T08:15:01.313Z,96744.91
2023-05-25T08:17:27.797Z,96726.25
2023-05-25T08:19:54.727Z,96906.41
2023-05-25T08:22:21.252Z,96958.44
2023-05-25T08:24:47.676Z,96911.78
2023-05-25T08:27:14.140Z,97022.28
2023-05-25T08:29:40.769Z,97070.59
2023-05-25T08:32:07.518Z,96963.19
2023-05-25T08:34:34.188Z,97011.66
2023-05-25T08:37:00.717Z,97090.97
2023-05-25T08:39:27.430Z,97246.09
2023-05-25T08:41:53.942Z,97192.91
2023-05-25T08:44:21.043Z,97172.63
2023-05-25T08:46:48.307Z,97258.94
2023-05-25T08:49:15.317Z,97331.78
2023-05-25T08:51:50.816Z,97399.06
2023-05-25T08:54:18.949Z,97349.06
2023-05-25T08:56:53.055Z,97384.59
2023-05-25T08:59:32.114Z,97447.91
2023-05-25T09:02:45.308Z,97446.88
2023-05-25T09:05:11.864Z,97388.31
2023-05-25T09:07:38.296Z,97398.06
2023-05-25T09:10:05.178Z,97495.78
2023-05-25T09:12:31.727Z,97389.72
2023-05-25T09:14:58.886Z,97420.19
2023-05-25T09:17:25.486Z,97402.03
2023-05-25T09:19:52.012Z,97420.38
2023-05-25T09:22:18.441Z,97540.16
2023-05-25T09:24:45.563Z,97575.72
2023-05-25T09:27:13.007Z,97591.94
2023-05-25T09:29:39.456Z,97696.44
2023-05-25T09:32:06.799Z,97679.34
2023-05-25T09:34:36.352Z,97653.84
2023-05-25T09:37:14.431Z,97557.09
2023-05-25T09:39:44.545Z,97516.59
2023-05-25T09:42:11.581Z,97486.47
2023-05-25T09:44:38.686Z,97499.00
2023-05-25T09:47:05.499Z,97562.88
2023-05-25T09:49:31.953Z,97479.84
2023-05-25T09:51:58.399Z,97517.66
2023-05-25T09:54:24.962Z,97608.81
2023-05-25T09:56:51.666Z,97665.75
2023-05-25T09:59:18.294Z,97824.72
2023-05-25T10:01:44.921Z,97884.28
2023-05-25T10:04:11.452Z,97822.03
2023-05-25T10:06:39.084Z,97867.72
2023-05-25T10:09:06.779Z,97893.78
2023-05-25T10:11:34.041Z,97874.84
2023-05-25T10:14:04.058Z,97969.81
2023-05-25T10:16:30.525Z,97956.53
2023-05-25T10:19:21.860Z,98000.09
2023-05-25T10:21:55.937Z,98123.59
2023-05-25T10:24:39.133Z,98206.59
2023-05-25T10:27:15.000Z,98216.75
2023-05-25T10:29:52.484Z,98119.84
2023-05-25T10:32:20.032Z,98310.44
2023-05-25T10:34:46.539Z,98287.91
2023-05-25T10:37:13.350Z,98364.13
2023-05-25T10:39:39.846Z,98542.47
2023-05-25T10:42:06.556Z,98541.00
2023-05-25T10:44:33.168Z,98612.28
2023-05-25T10:46:59.643Z,98648.34
2023-05-25T10:49:32.399Z,98648.91
2023-05-25T10:51:59.833Z,98701.09
2023-05-25T10:54:34.885Z,98755.13
2023-05-25T10:57:34.124Z,98839.00
2023-05-25T11:00:06.012Z,98987.47
2023-05-25T11:02:53.706Z,98993.06
2023-05-25T11:05:31.193Z,99116.94
2023-05-25T11:07:58.711Z,99137.47
2023-05-25T11:10:44.337Z,99253.00
2023-05-25T11:13:37.931Z,99496.22
2023-05-25T11:16:22.750Z,99676.13
2023-05-25T11:18:59.237Z,99663.06
2023-05-25T11:21:32.226Z,99630.00
2023-05-25T11:24:14.654Z,99658.84
2023-05-25T11:27:01.469Z,99627.69
2023-05-25T11:29:30.733Z,99701.81
2023-05-25T11:31:57.204Z,99864.59
2023-05-25T11:34:28.002Z,99940.78
2023-05-25T11:36:56.064Z,100116.44
2023-05-25T11:39:25.403Z,101059.09
2023-05-25T11:41:58.908Z,101420.84
2023-05-25T11:44:36.185Z,101633.97
2023-05-25T11:47:08.329Z,101732.34
2023-05-25T11:49:35.626Z,101691.78
2023-05-25T11:52:05.004Z,101599.66
2023-05-25T11:54:31.605Z,101557.38
2023-05-25T11:56:59.893Z,101497.63
2023-05-25T11:59:29.466Z,101439.38
2023-05-25T12:02:02.262Z,101486.63
2023-05-25T12:04:29.584Z,101481.47
2023-05-25T12:07:06.012Z,101570.59
2023-05-25T12:09:32.619Z,101537.38
2023-05-25T12:11:59.224Z,101480.03
2023-05-25T12:14:25.948Z,101458.53
2023-05-25T12:16:52.572Z,101475.78
2023-05-25T12:19:19.026Z,101504.34
2023-05-25T12:21:45.489Z,101439.09
2023-05-25T12:24:12.791Z,101467.78
2023-05-25T12:26:49.349Z,101482.44
2023-05-25T12:29:16.009Z,101487.53
2023-05-25T12:31:42.479Z,101491.53
2023-05-25T12:34:10.941Z,101485.41
2023-05-25T12:36:47.797Z,101486.84
2023-05-25T12:39:15.871Z,101451.78
2023-05-25T12:41:46.437Z,101406.13
2023-05-25T12:44:37.368Z,101368.56
2023-05-25T12:47:20.731Z,101378.06
2023-05-25T12:49:48.316Z,101379.06
2023-05-25T12:52:37.626Z,101384.16
2023-05-25T12:55:22.543Z,101423.09
2023-05-25T12:57:54.957Z,101648.78
2023-05-25T13:00:23.582Z,101666.75
2023-05-25T13:02:50.972Z,101662.25
2023-05-25T13:05:25.392Z,101643.28
2023-05-25T13:07:53.096Z,101576.09
2023-05-25T13:10:19.667Z,101689.00
2023-05-25T13:12:47.587Z,101731.00
2023-05-25T13:15:23.917Z,101708.66
2023-05-25T13:17:51.050Z,101727.97
2023-05-25T13:20:19.074Z,101743.41
2023-05-25T13:22:46.473Z,101760.94
2023-05-25T13:25:13.597Z,101774.25
2023-05-25T13:27:50.415Z,101790.84
2023-05-25T13:30:17.192Z,101779.44
2023-05-25T13:32:44.282Z,101768.69
2023-05-25T13:35:19.370Z,101803.59
2023-05-25T13:37:46.176Z,101801.47
2023-05-25T13:40:13.449Z,101796.47
2023-05-25T13:42:39.928Z,101788.88
2023-05-25T13:45:07.030Z,101817.44
2023-05-25T13:47:33.538Z,101815.59
2023-05-25T13:50:00.043Z,101823.72
2023-05-25T13:52:27.397Z,101817.16
2023-05-25T13:54:54.212Z,101813.31
2023-05-25T13:57:22.460Z,101827.44
2023-05-25T13:59:48.934Z,101822.22
2023-05-25T14:02:15.496Z,101828.13
2023-05-25T14:04:42.163Z,101819.69
2023-05-25T14:07:08.696Z,101809.50
2023-05-25T14:09:35.552Z,101805.84
2023-05-25T14:12:02.973Z,101797.19
2023-05-25T14:14:32.120Z,101805.38
2023-05-25T14:17:00.324Z,101798.44
2023-05-25T14:19:26.987Z,101794.47
2023-05-25T14:22:11.204Z,101789.41
2023-05-25T14:24:39.539Z,101796.25
2023-05-25T14:27:07.233Z,101804.81
2023-05-25T14:29:33.901Z,101795.22
2023-05-25T14:32:00.413Z,101803.13
2023-05-25T14:34:26.928Z,101805.81
2023-05-25T14:36:53.362Z,101809.56
2023-05-25T14:39:19.802Z,101813.53
2023-05-25T14:41:46.206Z,101816.28
2023-05-25T14:44:12.618Z,101822.41
2023-05-25T14:46:39.246Z,101818.56
2023-05-25T14:49:05.782Z,101810.03
2023-05-25T14:51:33.519Z,101815.03
2023-05-25T14:54:03.455Z,101813.00
2023-05-25T14:56:29.860Z,101807.19
2023-05-25T14:58:56.270Z,101817.34
2023-05-25T15:01:25.206Z,101809.53
2023-05-25T15:03:52.204Z,101812.94
2023-05-25T15:06:18.859Z,101815.03
2023-05-25T15:08:45.342Z,101825.38
2023-05-25T15:11:11.778Z,101810.22
2023-05-25T15:13:38.198Z,101810.63
2023-05-25T15:16:05.157Z,101812.06
2023-05-25T15:18:31.612Z,101801.75
2023-05-25T15:20:58.109Z,101802.47
2023-05-25T15:23:24.568Z,101812.38
2023-05-25T15:25:51.038Z,101804.84
2023-05-25T15:28:17.528Z,101804.69
2023-05-25T15:30:44.015Z,101797.09
2023-05-25T15:33:10.482Z,101801.66
2023-05-25T15:35:36.931Z,101788.19
2023-05-25T15:38:03.475Z,101792.72
2023-05-25T15:40:29.931Z,101788.78
2023-05-25T15:42:56.353Z,101785.94
2023-05-25T15:45:22.869Z,101781.38
2023-05-25T15:47:50.431Z,101783.19
2023-05-25T15:50:17.087Z,101785.13
2023-05-25T15:52:43.609Z,101785.63
2023-05-25T15:55:10.590Z,101789.44
2023-05-25T15:57:37.004Z,101789.47
2023-05-25T16:00:05.714Z,101784.44
2023-05-25T16:02:32.601Z,101780.47
2023-05-25T16:04:59.094Z,101768.38
2023-05-25T16:07:25.636Z,101777.72
2023-05-25T16:09:52.030Z,101768.53
2023-05-25T16:12:18.512Z,101764.22
2023-05-25T16:14:45.163Z,101764.72
2023-05-25T16:17:11.906Z,101766.13
2023-05-25T16:19:38.368Z,101760.81
2023-05-25T16:22:04.985Z,101760.97
2023-05-25T16:24:31.399Z,101761.84
2023-05-25T16:26:57.920Z,101759.22
2023-05-25T16:29:24.418Z,101766.75
2023-05-25T16:31:50.832Z,101763.13
2023-05-25T16:34:17.348Z,101759.72
2023-05-25T16:36:43.787Z,101748.41
2023-05-25T16:39:11.679Z,101743.59
2023-05-25T16:41:38.176Z,101758.72
2023-05-25T16:44:04.621Z,101755.34
2023-05-25T16:46:31.175Z,101762.38
2023-05-25T16:48:57.770Z,101760.34
2023-05-25T16:51:24.448Z,101772.31
2023-05-25T16:53:52.516Z,101764.84
2023-05-25T16:56:21.433Z,101761.56
2023-05-25T16:58:47.888Z,101761.78
2023-05-25T17:01:14.354Z,101749.72
2023-05-25T17:03:41.161Z,101749.66
2023-05-25T17:06:08.071Z,101759.19
2023-05-25T17:08:36.220Z,101752.44
2023-05-25T17:11:02.678Z,101754.53
2023-05-25T17:13:29.208Z,101753.25
2023-05-25T17:15:55.711Z,101754.13
2023-05-25T17:18:22.271Z,101755.53
2023-05-25T17:20:48.943Z,101752.06
2023-05-25T17:23:18.257Z,101761.28
2023-05-25T17:25:45.111Z,101770.13
2023-05-25T17:28:11.813Z,101761.72
2023-05-25T17:30:38.217Z,101764.06
2023-05-25T17:33:04.836Z,101766.28
2023-05-25T17:35:31.587Z,101759.34
2023-05-25T17:37:58.061Z,101774.53
2023-05-25T17:40:24.494Z,101766.03
2023-05-25T17:42:50.927Z,101765.03
2023-05-25T17:45:17.393Z,101770.50
2023-05-25T17:47:43.891Z,101770.50
2023-05-25T17:50:10.707Z,101767.03
2023-05-25T17:52:37.130Z,101776.19
2023-05-25T17:55:04.510Z,101762.59
2023-05-25T17:57:31.191Z,101774.41
2023-05-25T17:59:57.631Z,101765.44
2023-05-25T18:02:24.270Z,101769.50
2023-05-25T18:04:50.992Z,101764.47
2023-05-25T18:07:17.927Z,101761.81
2023-05-25T18:09:44.332Z,101760.88
2023-05-25T18:12:10.933Z,101759.53
2023-05-25T18:14:37.790Z,101763.22
2023-05-25T18:17:04.391Z,101756.44
2023-05-25T18:19:30.867Z,101756.44
2023-05-25T18:21:57.406Z,101752.84
2023-05-25T18:24:23.840Z,101759.78
2023-05-25T18:26:50.550Z,101755.50
2023-05-25T18:29:16.988Z,101746.06
2023-05-25T18:31:46.379Z,101757.88
2023-05-25T18:34:13.119Z,101760.72
2023-05-25T18:36:39.644Z,101759.75
2023-05-25T18:39:06.063Z,101767.00
2023-05-25T18:41:32.561Z,101766.63
2023-05-25T18:43:59.012Z,101762.28
2023-05-25T18:46:26.449Z,101757.19
2023-05-25T18:48:53.046Z,101751.88
2023-05-25T18:51:23.002Z,101757.19
2023-05-25T18:53:49.440Z,101743.22
2023-05-25T18:56:16.015Z,101746.31
2023-05-25T18:58:42.441Z,101744.13
2023-05-25T19:01:08.939Z,101731.91
2023-05-25T19:03:35.671Z,101725.00
2023-05-25T19:06:02.215Z,101728.81
2023-05-25T19:08:28.628Z,101728.06
2023-05-25T19:10:55.082Z,101721.94
2023-05-25T19:13:22.821Z,101705.09
2023-05-25T19:15:50.328Z,101708.09
2023-05-25T19:18:16.900Z,101690.78
2023-05-25T19:20:43.440Z,101679.56
2023-05-25T19:23:10.004Z,101683.22
2023-05-25T19:25:36.494Z,101679.13
2023-05-25T19:28:03.010Z,101661.69
2023-05-25T19:30:29.448Z,101632.00
2023-05-25T19:32:55.963Z,101595.00
2023-05-25T19:35:22.401Z,101594.47
2023-05-25T19:37:48.869Z,101597.97
2023-05-25T19:40:15.615Z,101593.75
2023-05-25T19:42:42.116Z,101576.09
2023-05-25T19:45:08.855Z,101512.78
2023-05-25T19:47:35.517Z,101462.91
2023-05-25T19:50:02.058Z,101384.59
2023-05-25T19:52:28.477Z,101235.78
2023-05-25T19:54:55.033Z,101089.69
2023-05-25T19:57:21.540Z,101057.50
2023-05-25T19:59:48.088Z,101026.41
2023-05-25T20:02:14.647Z,101059.41
2023-05-25T20:04:41.437Z,101067.31
2023-05-25T20:07:07.879Z,101088.78
2023-05-25T20:09:35.604Z,101072.16
2023-05-25T20:12:02.456Z,100979.13
2023-05-25T20:14:30.163Z,101007.94
2023-05-25T20:16:56.833Z,101079.44
2023-05-25T20:19:23.332Z,101091.88
2023-05-25T20:21:49.867Z,101106.19
2023-05-25T20:24:16.384Z,101110.84
2023-05-25T20:26:42.859Z,101075.91
2023-05-25T20:29:09.407Z,101082.13
2023-05-25T20:31:36.011Z,101055.75
2023-05-25T20:34:02.507Z,101076.53
2023-05-25T20:36:28.950Z,101097.66
2023-05-25T20:38:55.406Z,101094.22
2023-05-25T20:41:21.880Z,101075.91
2023-05-25T20:43:48.811Z,101057.91
2023-05-25T20:46:15.384Z,101034.41
2023-05-25T20:48:42.337Z,100941.69
2023-05-25T20:51:08.794Z,100878.28
2023-05-25T20:53:35.410Z,100851.03
2023-05-25T20:56:02.026Z,100808.91
2023-05-25T20:58:28.488Z,100735.25
2023-05-25T21:00:55.005Z,100614.34
2023-05-25T21:03:21.682Z,100471.16
2023-05-25T21:05:48.263Z,100394.78
2023-05-25T21:08:14.827Z,100326.59
2023-05-25T21:10:41.491Z,100307.34
2023-05-25T21:13:07.931Z,100289.59
2023-05-25T21:15:34.555Z,100305.66
2023-05-25T21:18:03.165Z,100309.19
2023-05-25T21:20:29.735Z,100316.66
2023-05-25T21:22:56.505Z,100343.16
2023-05-25T21:25:23.068Z,100375.56
2023-05-25T21:27:49.496Z,100399.91
2023-05-25T21:30:16.379Z,100419.69
2023-05-25T21:32:42.841Z,100451.84
2023-05-25T21:35:09.309Z,100457.09
2023-05-25T21:37:35.837Z,100478.19
2023-05-25T21:40:02.403Z,100473.19
2023-05-25T21:42:28.978Z,100471.41
2023-05-25T21:44:55.518Z,100475.22
2023-05-25T21:47:22.137Z,100468.44
2023-05-25T21:49:49.069Z,100445.03
2023-05-25T21:52:15.855Z,100438.31
2023-05-25T21:54:42.337Z,100446.25
2023-05-25T21:57:08.774Z,100435.94
2023-05-25T21:59:35.227Z,100437.97
2023-05-25T22:02:01.690Z,100429.66
2023-05-25T22:04:28.101Z,100462.31
2023-05-25T22:06:56.881Z,100462.97
2023-05-25T22:09:23.363Z,100468.38
2023-05-25T22:11:49.741Z,100442.97
2023-05-25T22:14:16.173Z,100454.41
2023-05-25T22:16:43.003Z,100428.09
2023-05-25T22:19:09.452Z,100430.16
2023-05-25T22:21:37.260Z,100429.63
2023-05-25T22:24:03.893Z,100429.50
2023-05-25T22:26:30.955Z,100429.97
2023-05-25T22:28:57.452Z,100409.84
2023-05-25T22:31:25.661Z,100393.25
2023-05-25T22:33:52.194Z,100366.34
2023-05-25T22:36:18.672Z,100344.78
2023-05-25T22:38:46.063Z,100345.56
2023-05-25T22:41:12.764Z,100343.75
2023-05-25T22:43:39.231Z,100332.63
2023-05-25T22:46:05.775Z,100321.47
2023-05-25T22:48:32.197Z,100316.28
2023-05-25T22:50:58.618Z,100285.97
2023-05-25T22:53:25.014Z,100269.19
2023-05-25T22:55:51.563Z,100251.81
2023-05-25T22:58:18.313Z,100241.41
2023-05-25T23:00:44.737Z,100221.63
2023-05-25T23:03:11.184Z,100195.44
2023-05-25T23:05:37.748Z,100192.63
2023-05-25T23:08:04.140Z,100177.03
2023-05-25T23:10:30.761Z,100158.94
2023-05-25T23:12:57.408Z,100163.28
2023-05-25T23:15:23.837Z,100131.88
2023-05-25T23:17:50.291Z,100120.88
2023-05-25T23:20:16.849Z,100123.72
2023-05-25T23:22:43.346Z,100108.66
2023-05-25T23:25:09.922Z,100101.88
2023-05-25T23:27:36.549Z,100062.66
2023-05-25T23:30:03.092Z,100031.22
2023-05-25T23:32:29.611Z,100042.66
2023-05-25T23:34:56.808Z,100023.34
2023-05-25T23:37:23.208Z,100003.28
2023-05-25T23:39:49.742Z,99996.63
2023-05-25T23:42:16.953Z,99992.41
2023-05-25T23:44:43.393Z,99988.44
2023-05-25T23:47:09.803Z,99933.94
2023-05-25T23:49:36.486Z,99896.22
2023-05-25T23:52:02.899Z,99880.47
2023-05-25T23:54:29.321Z,99863.41
2023-05-25T23:56:55.928Z,99856.34
2023-05-25T23:59:22.307Z,99849.22
